createdAt,value
2023-02-02T00:00:00.912Z,17.80
2023-02-02T00:02:27.974Z,20.27
2023-02-02T00:04:54.761Z,21.97
2023-02-02T00:07:22.547Z,15.87
2023-02-02T00:10:21.183Z,18.73
2023-02-02T00:12:50.555Z,14.93
2023-02-02T00:15:17.687Z,16.53
2023-02-02T00:17:44.443Z,27.27
2023-02-02T00:20:11.576Z,20.17
2023-02-02T00:22:38.487Z,15.17
2023-02-02T00:25:05.959Z,15.83
2023-02-02T00:27:32.719Z,20.80
2023-02-02T00:29:59.489Z,13.23
2023-02-02T00:32:26.405Z,16.80
2023-02-02T00:34:53.894Z,19.47
2023-02-02T00:37:20.688Z,12.90
2023-02-02T00:39:47.386Z,16.90
2023-02-02T00:42:14.417Z,17.17
2023-02-02T00:44:59.744Z,15.73
2023-02-02T00:47:29.230Z,20.30
2023-02-02T00:49:56.210Z,15.77
2023-02-02T00:52:23.416Z,12.83
2023-02-02T00:54:50.456Z,17.70
2023-02-02T00:57:17.558Z,13.30
2023-02-02T00:59:44.469Z,17.77
2023-02-02T01:02:12.317Z,22.37
2023-02-02T01:04:39.837Z,22.97
2023-02-02T01:07:06.644Z,18.03
2023-02-02T01:09:33.433Z,15.67
2023-02-02T01:12:01.287Z,20.23
2023-02-02T01:14:28.239Z,25.20
2023-02-02T01:16:56.004Z,27.97
2023-02-02T01:19:23.018Z,21.33
2023-02-02T01:21:51.316Z,16.90
2023-02-02T01:24:20.453Z,23.90
2023-02-02T01:26:47.318Z,14.03
2023-02-02T01:29:15.735Z,20.10
2023-02-02T01:31:42.789Z,21.03
2023-02-02T01:34:10.287Z,17.73
2023-02-02T01:36:37.165Z,19.13
2023-02-02T01:39:03.970Z,20.93
2023-02-02T01:41:30.953Z,20.23
2023-02-02T01:44:00.332Z,16.27
2023-02-02T01:46:30.108Z,15.97
2023-02-02T01:49:12.671Z,14.37
2023-02-02T01:51:48.426Z,18.97
2023-02-02T01:54:20.388Z,21.83
2023-02-02T01:56:55.408Z,23.50
2023-02-02T01:59:22.725Z,27.07
2023-02-02T02:01:50.246Z,16.93
2023-02-02T02:04:17.531Z,17.70
2023-02-02T02:06:45.544Z,17.83
2023-02-02T02:09:13.454Z,22.30
2023-02-02T02:11:40.477Z,10.07
2023-02-02T02:14:28.460Z,11.33
2023-02-02T02:17:17.569Z,17.20
2023-02-02T02:20:22.039Z,21.87
2023-02-02T02:23:33.783Z,19.90
2023-02-02T02:26:21.962Z,20.63
2023-02-02T02:29:02.985Z,18.27
2023-02-02T02:31:33.964Z,12.20
2023-02-02T02:34:10.670Z,13.07
2023-02-02T02:37:12.924Z,15.97
2023-02-02T02:40:08.751Z,17.40
2023-02-02T02:42:40.041Z,11.83
2023-02-02T02:45:08.291Z,25.10
2023-02-02T02:47:35.614Z,18.40
2023-02-02T02:50:03.387Z,14.43
2023-02-02T02:52:30.345Z,17.93
2023-02-02T02:54:58.568Z,9.77
2023-02-02T02:57:45.174Z,18.00
2023-02-02T03:00:36.673Z,11.67
2023-02-02T03:03:21.762Z,9.50
2023-02-02T03:05:53.292Z,16.13
2023-02-02T03:08:24.542Z,17.50
2023-02-02T03:10:51.808Z,14.57
2023-02-02T03:13:19.084Z,9.50
2023-02-02T03:15:46.562Z,7.67
2023-02-02T03:18:14.927Z,17.30
2023-02-02T03:20:43.476Z,12.07
2023-02-02T03:23:10.392Z,18.30
2023-02-02T03:25:37.491Z,15.47
2023-02-02T03:28:05.369Z,11.87
2023-02-02T03:30:32.561Z,10.43
2023-02-02T03:32:59.511Z,14.83
2023-02-02T03:35:26.651Z,14.03
2023-02-02T03:37:53.490Z,12.83
2023-02-02T03:40:20.396Z,11.90
2023-02-02T03:42:47.155Z,13.07
2023-02-02T03:45:14.180Z,12.00
2023-02-02T03:47:41.096Z,15.20
2023-02-02T03:50:09.966Z,17.47
2023-02-02T03:52:37.029Z,17.83
2023-02-02T03:55:05.520Z,13.30
2023-02-02T03:57:32.265Z,16.67
2023-02-02T03:59:59.370Z,15.20
2023-02-02T04:02:26.057Z,16.67
2023-02-02T04:04:53.035Z,15.07
2023-02-02T04:07:19.895Z,14.00
2023-02-02T04:09:46.798Z,14.80
2023-02-02T04:12:13.495Z,9.53
2023-02-02T04:14:40.236Z,15.60
2023-02-02T04:17:07.150Z,10.50
2023-02-02T04:19:33.920Z,16.83
2023-02-02T04:22:00.639Z,10.17
2023-02-02T04:24:28.301Z,10.60
2023-02-02T04:26:55.102Z,14.13
2023-02-02T04:29:21.868Z,8.67
2023-02-02T04:31:48.625Z,14.07
2023-02-02T04:34:15.653Z,16.37
2023-02-02T04:36:42.416Z,15.33
2023-02-02T04:39:11.848Z,14.83
2023-02-02T04:41:38.563Z,29.03
2023-02-02T04:44:06.898Z,8.13
2023-02-02T04:46:33.726Z,23.50
2023-02-02T04:49:00.430Z,14.03
2023-02-02T04:51:27.237Z,11.17
2023-02-02T04:53:54.154Z,14.70
2023-02-02T04:56:21.093Z,10.53
2023-02-02T04:58:50.382Z,15.93
2023-02-02T05:01:21.096Z,14.87
2023-02-02T05:03:48.733Z,14.30
2023-02-02T05:06:16.816Z,12.80
2023-02-02T05:08:44.450Z,12.40
2023-02-02T05:11:13.679Z,17.13
2023-02-02T05:13:54.646Z,8.43
2023-02-02T05:16:22.970Z,14.87
2023-02-02T05:18:53.815Z,12.73
2023-02-02T05:21:21.371Z,12.07
2023-02-02T05:23:48.387Z,10.83
2023-02-02T05:26:20.041Z,12.97
2023-02-02T05:28:47.054Z,12.20
2023-02-02T05:31:14.353Z,14.97
2023-02-02T05:33:41.127Z,10.87
2023-02-02T05:36:08.032Z,9.57
2023-02-02T05:38:35.455Z,19.00
2023-02-02T05:41:05.310Z,17.57
2023-02-02T05:43:33.571Z,18.97
2023-02-02T05:46:01.052Z,12.27
2023-02-02T05:48:28.209Z,16.37
2023-02-02T05:51:03.833Z,17.10
2023-02-02T05:53:32.060Z,10.37
2023-02-02T05:55:59.491Z,10.67
2023-02-02T05:58:28.034Z,16.53
2023-02-02T06:00:56.690Z,13.27
2023-02-02T06:03:24.120Z,15.80
2023-02-02T06:05:51.071Z,9.03
2023-02-02T06:08:17.909Z,21.43
2023-02-02T06:10:44.877Z,10.17
2023-02-02T06:13:11.849Z,13.20
2023-02-02T06:15:38.674Z,16.03
2023-02-02T06:18:08.869Z,19.07
2023-02-02T06:20:36.529Z,12.77
2023-02-02T06:23:03.280Z,15.60
2023-02-02T06:25:30.366Z,19.67
2023-02-02T06:27:58.425Z,13.53
2023-02-02T06:30:28.274Z,11.40
2023-02-02T06:32:55.136Z,12.43
2023-02-02T06:35:22.513Z,23.43
2023-02-02T06:37:49.726Z,13.50
2023-02-02T06:40:16.924Z,14.03
2023-02-02T06:42:43.700Z,12.97
2023-02-02T06:45:10.978Z,9.93
2023-02-02T06:47:37.779Z,15.03
2023-02-02T06:50:05.067Z,15.17
2023-02-02T06:52:31.857Z,19.30
2023-02-02T06:54:58.574Z,20.50
2023-02-02T06:57:25.334Z,11.10
2023-02-02T06:59:52.331Z,11.67
2023-02-02T07:02:19.626Z,15.40
2023-02-02T07:04:46.363Z,10.03
2023-02-02T07:07:13.086Z,7.13
2023-02-02T07:09:39.847Z,17.33
2023-02-02T07:12:06.745Z,10.30
2023-02-02T07:14:33.602Z,9.70
2023-02-02T07:17:00.429Z,8.00
2023-02-02T07:19:27.278Z,12.77
2023-02-02T07:21:54.021Z,9.63
2023-02-02T07:24:20.813Z,8.80
2023-02-02T07:26:48.072Z,9.67
2023-02-02T07:29:15.030Z,14.00
2023-02-02T07:31:41.857Z,9.83
2023-02-02T07:34:08.783Z,13.10
2023-02-02T07:36:35.920Z,14.30
2023-02-02T07:39:04.988Z,17.50
2023-02-02T07:41:33.698Z,13.43
2023-02-02T07:44:00.562Z,13.97
2023-02-02T07:46:27.527Z,13.20
2023-02-02T07:48:58.107Z,13.20
2023-02-02T07:51:25.832Z,12.77
2023-02-02T07:53:54.472Z,18.73
2023-02-02T07:56:26.128Z,16.17
2023-02-02T07:58:54.246Z,10.23
2023-02-02T08:01:24.101Z,11.87
2023-02-02T08:04:00.506Z,11.57
2023-02-02T08:06:31.452Z,13.27
2023-02-02T08:08:59.227Z,16.40
2023-02-02T08:11:26.934Z,15.80
2023-02-02T08:13:58.773Z,8.87
2023-02-02T08:16:26.785Z,15.27
2023-02-02T08:18:53.614Z,8.53
2023-02-02T08:21:21.995Z,11.90
2023-02-02T08:23:48.943Z,10.67
2023-02-02T08:26:17.194Z,6.83
2023-02-02T08:28:45.719Z,6.43
2023-02-02T08:31:22.061Z,12.30
2023-02-02T08:33:50.454Z,13.10
2023-02-02T08:36:19.392Z,15.17
2023-02-02T08:38:46.715Z,11.77
2023-02-02T08:41:16.487Z,13.23
2023-02-02T08:43:43.549Z,15.27
2023-02-02T08:46:11.973Z,9.93
2023-02-02T08:48:39.401Z,10.43
2023-02-02T08:51:07.496Z,7.40
2023-02-02T08:53:34.609Z,13.53
2023-02-02T08:56:04.169Z,10.10
2023-02-02T08:58:31.798Z,8.03
2023-02-02T09:01:10.718Z,10.17
2023-02-02T09:03:40.279Z,11.30
2023-02-02T09:06:09.636Z,12.37
2023-02-02T09:08:36.720Z,10.17
2023-02-02T09:11:05.683Z,6.60
2023-02-02T09:13:32.681Z,13.77
2023-02-02T09:16:01.175Z,10.20
2023-02-02T09:18:28.039Z,11.17
2023-02-02T09:20:55.032Z,16.10
2023-02-02T09:23:22.475Z,9.33
2023-02-02T09:25:49.430Z,13.87
2023-02-02T09:28:16.168Z,12.80
2023-02-02T09:30:42.943Z,12.20
2023-02-02T09:33:09.913Z,11.30
2023-02-02T09:35:36.804Z,6.90
2023-02-02T09:38:03.596Z,12.70
2023-02-02T09:40:32.277Z,19.60
2023-02-02T09:43:08.536Z,13.20
2023-02-02T09:46:01.514Z,15.80
2023-02-02T09:48:50.281Z,9.77
2023-02-02T09:51:20.345Z,12.67
2023-02-02T09:54:05.078Z,9.63
2023-02-02T09:56:41.819Z,11.67
2023-02-02T09:59:20.421Z,15.10
2023-02-02T10:01:52.473Z,13.60
2023-02-02T10:04:23.469Z,6.10
2023-02-02T10:06:56.734Z,10.83
2023-02-02T10:09:29.737Z,9.53
2023-02-02T10:12:24.573Z,10.47
2023-02-02T10:15:00.398Z,14.60
2023-02-02T10:17:38.319Z,10.90
2023-02-02T10:20:34.353Z,3.87
2023-02-02T10:23:10.323Z,6.93
2023-02-02T10:25:38.023Z,7.77
2023-02-02T10:28:10.297Z,11.77
2023-02-02T10:31:01.177Z,7.33
2023-02-02T10:33:40.474Z,10.93
2023-02-02T10:36:41.310Z,11.17
2023-02-02T10:39:42.259Z,9.43
2023-02-02T10:42:33.257Z,8.57
2023-02-02T10:45:04.211Z,11.50
2023-02-02T10:47:33.306Z,8.03
2023-02-02T10:50:12.409Z,7.60
2023-02-02T10:52:43.993Z,13.57
2023-02-02T10:55:10.793Z,7.00
2023-02-02T10:58:08.096Z,7.17
2023-02-02T11:00:55.412Z,11.03
2023-02-02T11:03:27.549Z,8.30
2023-02-02T11:06:12.876Z,16.07
2023-02-02T11:08:44.757Z,16.13
2023-02-02T11:11:36.037Z,10.40
2023-02-02T11:14:14.915Z,13.03
2023-02-02T11:16:46.418Z,10.50
2023-02-02T11:19:22.074Z,7.90
2023-02-02T11:21:51.649Z,10.67
2023-02-02T11:24:25.157Z,14.47
2023-02-02T11:26:55.945Z,6.07
2023-02-02T11:29:29.903Z,12.83
2023-02-02T11:31:57.102Z,5.33
2023-02-02T11:34:28.198Z,12.77
2023-02-02T11:37:02.518Z,13.50
2023-02-02T11:39:29.748Z,8.33
2023-02-02T11:42:05.082Z,3.93
2023-02-02T11:44:32.787Z,16.27
2023-02-02T11:47:00.730Z,6.77
2023-02-02T11:49:28.363Z,7.27
2023-02-02T11:52:04.586Z,10.27
2023-02-02T11:54:36.491Z,11.10
2023-02-02T11:57:08.709Z,6.90
2023-02-02T11:59:38.265Z,10.40
2023-02-02T12:02:14.185Z,11.13
2023-02-02T12:04:41.280Z,12.67
2023-02-02T12:07:26.246Z,14.87
2023-02-02T12:09:54.145Z,8.73
2023-02-02T12:12:50.330Z,4.20
2023-02-02T12:15:36.105Z,5.40
2023-02-02T12:18:15.749Z,9.70
2023-02-02T12:20:51.775Z,7.70
2023-02-02T12:23:44.852Z,6.17
2023-02-02T12:26:22.638Z,7.93
2023-02-02T12:28:55.519Z,9.70
2023-02-02T12:31:29.125Z,8.33
2023-02-02T12:34:30.101Z,11.30
2023-02-02T12:37:34.320Z,6.50
2023-02-02T12:40:35.058Z,6.67
2023-02-02T12:43:40.172Z,9.23
2023-02-02T12:46:20.037Z,8.53
2023-02-02T12:48:55.921Z,8.00
2023-02-02T12:51:54.888Z,8.63
2023-02-02T12:54:44.881Z,7.27
2023-02-02T12:58:06.402Z,8.33
2023-02-02T13:01:13.575Z,5.03
2023-02-02T13:03:51.387Z,11.07
2023-02-02T13:06:50.618Z,4.90
2023-02-02T13:09:27.658Z,11.40
2023-02-02T13:11:58.036Z,7.80
2023-02-02T13:14:30.811Z,8.93
2023-02-02T13:17:02.895Z,6.83
2023-02-02T13:19:34.793Z,11.30
2023-02-02T13:22:03.795Z,8.27
2023-02-02T13:24:33.587Z,8.37
2023-02-02T13:27:03.369Z,5.90
2023-02-02T13:29:47.470Z,6.33
2023-02-02T13:32:24.090Z,8.13
2023-02-02T13:34:55.801Z,7.77
2023-02-02T13:38:02.407Z,7.00
2023-02-02T13:40:36.892Z,8.83
2023-02-02T13:43:16.234Z,8.23
2023-02-02T13:45:52.091Z,5.17
2023-02-02T13:48:34.280Z,11.87
2023-02-02T13:51:25.969Z,8.13
2023-02-02T13:54:17.380Z,8.07
2023-02-02T13:57:05.979Z,9.00
2023-02-02T13:59:41.692Z,5.33
2023-02-02T14:02:24.216Z,5.60
2023-02-02T14:05:00.163Z,8.53
2023-02-02T14:07:44.397Z,9.30
2023-02-02T14:10:24.738Z,5.47
2023-02-02T14:12:52.013Z,8.17
2023-02-02T14:15:19.167Z,7.90
2023-02-02T14:17:47.353Z,8.63
2023-02-02T14:20:42.315Z,6.60
2023-02-02T14:23:53.598Z,8.20
2023-02-02T14:26:53.148Z,7.57
2023-02-02T14:29:32.278Z,4.03
2023-02-02T14:32:03.838Z,4.60
2023-02-02T14:34:44.683Z,8.57
2023-02-02T14:37:24.238Z,5.00
2023-02-02T14:40:06.502Z,6.20
2023-02-02T14:43:01.640Z,6.40
2023-02-02T14:45:40.656Z,5.77
2023-02-02T14:48:07.567Z,4.17
2023-02-02T14:50:42.903Z,16.17
2023-02-02T14:53:15.708Z,5.13
2023-02-02T14:56:28.966Z,9.90
2023-02-02T14:59:00.914Z,8.07
2023-02-02T15:01:35.746Z,10.27
2023-02-02T15:04:23.975Z,6.07
2023-02-02T15:06:56.918Z,7.03
2023-02-02T15:09:23.886Z,5.13
2023-02-02T15:12:02.521Z,10.30
2023-02-02T15:14:53.560Z,7.13
2023-02-02T15:17:41.109Z,3.17
2023-02-02T15:20:12.903Z,6.30
2023-02-02T15:22:47.533Z,6.77
2023-02-02T15:25:31.641Z,9.97
2023-02-02T15:28:08.168Z,6.70
2023-02-02T15:30:38.200Z,12.13
2023-02-02T15:33:12.743Z,6.23
2023-02-02T15:35:43.658Z,5.80
2023-02-02T15:38:15.681Z,4.77
2023-02-02T15:40:43.977Z,9.10
2023-02-02T15:43:11.296Z,9.03
2023-02-02T15:45:43.503Z,7.73
2023-02-02T15:48:24.031Z,5.07
2023-02-02T15:50:55.538Z,7.30
2023-02-02T15:53:25.769Z,7.87
2023-02-02T15:55:53.390Z,5.63
2023-02-02T15:58:28.403Z,7.57
2023-02-02T16:01:01.433Z,6.57
2023-02-02T16:03:43.185Z,3.87
2023-02-02T16:06:10.639Z,6.30
2023-02-02T16:08:40.097Z,9.13
2023-02-02T16:11:08.808Z,6.00
2023-02-02T16:13:36.332Z,9.60
2023-02-02T16:16:06.881Z,5.93
2023-02-02T16:18:35.527Z,10.30
2023-02-02T16:21:07.116Z,11.60
2023-02-02T16:23:35.526Z,3.47
2023-02-02T16:26:03.965Z,3.87
2023-02-02T16:28:31.731Z,11.37
2023-02-02T16:31:02.176Z,12.73
2023-02-02T16:33:35.966Z,8.40
2023-02-02T16:36:24.063Z,8.93
2023-02-02T16:38:53.249Z,7.47
2023-02-02T16:41:34.317Z,6.17
2023-02-02T16:44:39.398Z,7.73
2023-02-02T16:47:08.407Z,6.73
2023-02-02T16:49:36.124Z,8.00
2023-02-02T16:52:17.331Z,7.20
2023-02-02T16:54:56.969Z,10.90
2023-02-02T16:57:26.419Z,8.60
2023-02-02T16:59:56.247Z,7.37
2023-02-02T17:02:32.446Z,5.90
2023-02-02T17:05:02.307Z,7.97
2023-02-02T17:07:30.196Z,7.33
2023-02-02T17:10:23.662Z,7.90
2023-02-02T17:12:50.587Z,6.50
2023-02-02T17:15:17.925Z,6.97
2023-02-02T17:17:49.746Z,7.97
2023-02-02T17:20:17.948Z,2.47
2023-02-02T17:23:07.012Z,6.13
2023-02-02T17:25:42.038Z,5.70
2023-02-02T17:28:15.005Z,4.97
2023-02-02T17:30:47.374Z,7.00
2023-02-02T17:33:16.165Z,6.43
2023-02-02T17:35:54.325Z,8.47
2023-02-02T17:38:27.748Z,4.33
2023-02-02T17:40:56.130Z,8.97
2023-02-02T17:43:23.060Z,6.80
2023-02-02T17:45:50.506Z,5.30
2023-02-02T17:48:17.702Z,9.17
2023-02-02T17:50:45.069Z,9.93
2023-02-02T17:53:13.732Z,10.80
2023-02-02T17:55:42.803Z,3.83
2023-02-02T17:58:13.236Z,6.67
2023-02-02T18:00:40.792Z,8.00
2023-02-02T18:03:23.870Z,5.93
2023-02-02T18:05:51.185Z,11.03
2023-02-02T18:08:18.255Z,5.37
2023-02-02T18:10:45.371Z,8.10
2023-02-02T18:13:16.337Z,7.33
2023-02-02T18:15:43.945Z,9.07
2023-02-02T18:18:12.567Z,5.43
2023-02-02T18:20:47.319Z,7.57
2023-02-02T18:23:14.838Z,5.57
2023-02-02T18:25:42.013Z,6.60
2023-02-02T18:28:09.839Z,8.57
2023-02-02T18:30:40.551Z,4.57
2023-02-02T18:33:09.275Z,4.50
2023-02-02T18:35:38.145Z,5.77
2023-02-02T18:38:05.107Z,7.03
2023-02-02T18:40:32.277Z,7.93
2023-02-02T18:42:59.340Z,6.83
2023-02-02T18:45:26.693Z,5.97
2023-02-02T18:47:57.184Z,8.13
2023-02-02T18:50:31.804Z,8.30
2023-02-02T18:52:59.897Z,11.73
2023-02-02T18:55:27.183Z,10.07
2023-02-02T18:57:56.969Z,9.43
2023-02-02T19:00:24.406Z,7.80
2023-02-02T19:02:52.041Z,8.50
2023-02-02T19:05:40.938Z,6.97
2023-02-02T19:08:10.302Z,9.47
2023-02-02T19:10:37.209Z,7.03
2023-02-02T19:13:22.464Z,9.90
2023-02-02T19:15:50.178Z,7.90
2023-02-02T19:18:19.443Z,12.10
2023-02-02T19:20:46.968Z,12.73
2023-02-02T19:23:18.953Z,9.10
2023-02-02T19:25:59.359Z,7.77
2023-02-02T19:28:32.730Z,7.97
2023-02-02T19:31:02.304Z,21.53
2023-02-02T19:33:40.471Z,9.80
2023-02-02T19:36:19.218Z,11.50
2023-02-02T19:38:47.320Z,6.73
2023-02-02T19:41:23.342Z,13.03
2023-02-02T19:43:58.500Z,6.37
2023-02-02T19:46:27.036Z,7.43
2023-02-02T19:49:20.463Z,8.60
2023-02-02T19:51:56.523Z,7.37
2023-02-02T19:54:33.119Z,8.23
2023-02-02T19:57:05.919Z,8.93
2023-02-02T19:59:35.088Z,10.30
2023-02-02T20:02:19.927Z,9.40
2023-02-02T20:04:47.193Z,10.23
2023-02-02T20:07:15.158Z,7.47
2023-02-02T20:09:43.969Z,8.47
2023-02-02T20:12:22.580Z,6.20
2023-02-02T20:14:57.898Z,9.33
2023-02-02T20:17:38.592Z,8.23
2023-02-02T20:20:21.846Z,9.67
2023-02-02T20:22:48.825Z,13.70
2023-02-02T20:25:15.906Z,8.27
2023-02-02T20:27:44.343Z,7.70
2023-02-02T20:30:22.042Z,8.07
2023-02-02T20:33:02.805Z,10.33
2023-02-02T20:35:48.413Z,10.87
2023-02-02T20:38:23.677Z,6.83
2023-02-02T20:40:54.462Z,7.83
2023-02-02T20:43:21.946Z,7.63
2023-02-02T20:45:56.207Z,7.73
2023-02-02T20:48:24.892Z,6.50
2023-02-02T20:50:52.106Z,10.30
2023-02-02T20:53:19.279Z,8.50
2023-02-02T20:55:46.335Z,10.87
2023-02-02T20:58:13.293Z,8.53
2023-02-02T21:00:43.164Z,8.70
2023-02-02T21:03:13.639Z,11.33
2023-02-02T21:05:50.081Z,6.07
2023-02-02T21:08:28.260Z,10.00
2023-02-02T21:11:01.633Z,11.47
2023-02-02T21:13:56.279Z,10.83
2023-02-02T21:16:38.789Z,7.17
2023-02-02T21:19:08.357Z,6.67
2023-02-02T21:21:40.911Z,8.00
2023-02-02T21:24:08.043Z,8.67
2023-02-02T21:26:34.991Z,11.13
2023-02-02T21:29:04.201Z,4.90
2023-02-02T21:31:58.884Z,7.20
2023-02-02T21:34:32.215Z,8.97
2023-02-02T21:36:59.579Z,9.00
2023-02-02T21:39:35.276Z,12.73
2023-02-02T21:42:08.775Z,7.13
2023-02-02T21:44:37.624Z,10.60
2023-02-02T21:47:23.944Z,7.30
2023-02-02T21:49:50.825Z,6.00
2023-02-02T21:52:18.733Z,8.07
2023-02-02T21:54:46.820Z,7.20
2023-02-02T21:57:21.586Z,9.80
2023-02-02T21:59:56.443Z,8.97
2023-02-02T22:02:40.216Z,5.33
2023-02-02T22:05:26.119Z,5.73
2023-02-02T22:07:56.245Z,5.30
2023-02-02T22:10:39.311Z,6.60
2023-02-02T22:13:18.015Z,4.20
2023-02-02T22:15:47.473Z,7.43
2023-02-02T22:18:20.313Z,5.90
2023-02-02T22:20:50.618Z,5.80
2023-02-02T22:23:29.205Z,10.80
2023-02-02T22:25:57.933Z,9.90
2023-02-02T22:28:34.312Z,9.37
2023-02-02T22:31:05.221Z,11.80
2023-02-02T22:33:32.266Z,9.30
2023-02-02T22:35:59.466Z,7.80
2023-02-02T22:38:27.306Z,8.77
2023-02-02T22:40:54.589Z,9.27
2023-02-02T22:43:21.727Z,11.33
2023-02-02T22:45:49.101Z,9.33
2023-02-02T22:48:17.142Z,7.53
2023-02-02T22:50:44.132Z,11.87
2023-02-02T22:53:14.064Z,9.37
2023-02-02T22:55:41.403Z,9.00
2023-02-02T22:58:08.318Z,7.47
2023-02-02T23:00:36.163Z,7.07
2023-02-02T23:03:03.187Z,5.87
2023-02-02T23:05:30.173Z,6.70
2023-02-02T23:07:56.963Z,7.63
2023-02-02T23:10:26.213Z,9.23
2023-02-02T23:12:55.014Z,6.67
2023-02-02T23:15:21.959Z,10.23
2023-02-02T23:17:48.858Z,7.20
2023-02-02T23:20:16.211Z,6.70
2023-02-02T23:22:43.427Z,4.60
2023-02-02T23:25:11.709Z,9.00
2023-02-02T23:27:39.100Z,6.93
2023-02-02T23:30:07.496Z,9.27
2023-02-02T23:32:34.970Z,7.30
2023-02-02T23:35:02.113Z,12.43
2023-02-02T23:37:29.002Z,6.37
2023-02-02T23:39:55.832Z,9.70
2023-02-02T23:42:22.647Z,10.00
2023-02-02T23:44:49.834Z,8.73
2023-02-02T23:47:16.635Z,8.80
2023-02-02T23:49:43.792Z,7.13
2023-02-02T23:52:11.041Z,7.03
2023-02-02T23:54:38.295Z,8.07
2023-02-02T23:57:05.554Z,12.60
2023-02-02T23:59:32.779Z,10.77
